sensor_id;sensor_type;location;lat;lon;timestamp;P1;durP1;ratioP1;P2;durP2;ratioP2
20721;SDS011;10522;52.198;9.890;2023-06-05T00:01:58;3.63;;;2.53;;
20721;SDS011;10522;52.198;9.890;2023-06-05T00:04:24;3.90;;;2.77;;
20721;SDS011;10522;52.198;9.890;2023-06-05T00:06:50;5.10;;;2.33;;
20721;SDS011;10522;52.198;9.890;2023-06-05T00:09:18;4.47;;;2.03;;
20721;SDS011;10522;52.198;9.890;2023-06-05T00:11:44;5.77;;;2.43;;
20721;SDS011;10522;52.198;9.890;2023-06-05T00:14:10;3.80;;;2.13;;
20721;SDS011;10522;52.198;9.890;2023-06-05T00:16:35;2.97;;;2.37;;
20721;SDS011;10522;52.198;9.890;2023-06-05T00:19:01;6.30;;;2.60;;
20721;SDS011;10522;52.198;9.890;2023-06-05T00:21:27;4.17;;;2.80;;
20721;SDS011;10522;52.198;9.890;2023-06-05T00:23:53;4.77;;;2.40;;
20721;SDS011;10522;52.198;9.890;2023-06-05T00:26:18;5.40;;;2.03;;
20721;SDS011;10522;52.198;9.890;2023-06-05T00:28:44;5.93;;;2.83;;
20721;SDS011;10522;52.198;9.890;2023-06-05T00:31:10;9.27;;;2.97;;
20721;SDS011;10522;52.198;9.890;2023-06-05T00:33:38;3.80;;;2.40;;
20721;SDS011;10522;52.198;9.890;2023-06-05T00:36:03;4.73;;;2.73;;
20721;SDS011;10522;52.198;9.890;2023-06-05T00:38:29;3.33;;;2.30;;
20721;SDS011;10522;52.198;9.890;2023-06-05T00:40:55;3.73;;;2.03;;
20721;SDS011;10522;52.198;9.890;2023-06-05T00:43:21;6.20;;;2.50;;
20721;SDS011;10522;52.198;9.890;2023-06-05T00:45:46;4.83;;;2.10;;
20721;SDS011;10522;52.198;9.890;2023-06-05T00:48:13;2.73;;;2.13;;
20721;SDS011;10522;52.198;9.890;2023-06-05T00:50:38;4.27;;;2.23;;
20721;SDS011;10522;52.198;9.890;2023-06-05T00:53:05;4.33;;;2.77;;
20721;SDS011;10522;52.198;9.890;2023-06-05T00:55:32;4.37;;;2.20;;
20721;SDS011;10522;52.198;9.890;2023-06-05T00:57:58;4.43;;;2.60;;
20721;SDS011;10522;52.198;9.890;2023-06-05T01:00:25;5.07;;;2.60;;
20721;SDS011;10522;52.198;9.890;2023-06-05T01:02:51;3.57;;;2.30;;
20721;SDS011;10522;52.198;9.890;2023-06-05T01:05:18;5.00;;;2.50;;
20721;SDS011;10522;52.198;9.890;2023-06-05T01:07:44;6.00;;;2.83;;
20721;SDS011;10522;52.198;9.890;2023-06-05T01:10:12;4.17;;;2.33;;
20721;SDS011;10522;52.198;9.890;2023-06-05T01:15:29;5.03;;;2.50;;
20721;SDS011;10522;52.198;9.890;2023-06-05T01:17:57;4.43;;;2.33;;
20721;SDS011;10522;52.198;9.890;2023-06-05T01:20:24;6.60;;;2.60;;
20721;SDS011;10522;52.198;9.890;2023-06-05T01:22:59;5.60;;;2.47;;
20721;SDS011;10522;52.198;9.890;2023-06-05T01:25:26;6.13;;;2.10;;
20721;SDS011;10522;52.198;9.890;2023-06-05T01:27:54;3.73;;;2.23;;
20721;SDS011;10522;52.198;9.890;2023-06-05T01:31:09;7.17;;;2.73;;
20721;SDS011;10522;52.198;9.890;2023-06-05T01:33:26;3.23;;;2.43;;
20721;SDS011;10522;52.198;9.890;2023-06-05T01:36:06;6.83;;;2.97;;
20721;SDS011;10522;52.198;9.890;2023-06-05T01:38:35;8.27;;;2.73;;
20721;SDS011;10522;52.198;9.890;2023-06-05T01:41:01;4.27;;;2.40;;
20721;SDS011;10522;52.198;9.890;2023-06-05T01:43:29;7.10;;;3.03;;
20721;SDS011;10522;52.198;9.890;2023-06-05T01:45:55;2.77;;;2.40;;
20721;SDS011;10522;52.198;9.890;2023-06-05T01:48:26;6.03;;;2.97;;
20721;SDS011;10522;52.198;9.890;2023-06-05T01:50:59;5.40;;;2.63;;
20721;SDS011;10522;52.198;9.890;2023-06-05T01:53:25;3.80;;;2.83;;
20721;SDS011;10522;52.198;9.890;2023-06-05T01:55:52;4.83;;;2.67;;
20721;SDS011;10522;52.198;9.890;2023-06-05T01:58:21;4.43;;;2.67;;
20721;SDS011;10522;52.198;9.890;2023-06-05T02:00:47;5.33;;;2.90;;
20721;SDS011;10522;52.198;9.890;2023-06-05T02:03:13;5.60;;;2.90;;
20721;SDS011;10522;52.198;9.890;2023-06-05T02:05:43;5.77;;;2.60;;
20721;SDS011;10522;52.198;9.890;2023-06-05T02:08:08;5.07;;;2.43;;
20721;SDS011;10522;52.198;9.890;2023-06-05T02:10:35;4.30;;;2.63;;
20721;SDS011;10522;52.198;9.890;2023-06-05T02:13:02;3.53;;;2.63;;
20721;SDS011;10522;52.198;9.890;2023-06-05T02:15:28;5.87;;;3.83;;
20721;SDS011;10522;52.198;9.890;2023-06-05T02:17:57;4.40;;;3.17;;
20721;SDS011;10522;52.198;9.890;2023-06-05T02:20:23;11.97;;;2.87;;
20721;SDS011;10522;52.198;9.890;2023-06-05T02:22:50;4.00;;;3.30;;
20721;SDS011;10522;52.198;9.890;2023-06-05T02:25:17;5.73;;;3.03;;
20721;SDS011;10522;52.198;9.890;2023-06-05T02:27:43;5.50;;;3.03;;
20721;SDS011;10522;52.198;9.890;2023-06-05T02:30:09;6.93;;;3.07;;
20721;SDS011;10522;52.198;9.890;2023-06-05T02:32:36;4.07;;;2.77;;
20721;SDS011;10522;52.198;9.890;2023-06-05T02:35:06;8.47;;;3.80;;
20721;SDS011;10522;52.198;9.890;2023-06-05T02:37:32;5.70;;;2.93;;
20721;SDS011;10522;52.198;9.890;2023-06-05T02:40:02;3.17;;;2.80;;
20721;SDS011;10522;52.198;9.890;2023-06-05T02:42:32;3.40;;;2.70;;
20721;SDS011;10522;52.198;9.890;2023-06-05T02:44:59;7.23;;;3.03;;
20721;SDS011;10522;52.198;9.890;2023-06-05T02:47:25;4.33;;;2.80;;
20721;SDS011;10522;52.198;9.890;2023-06-05T02:49:50;7.10;;;2.90;;
20721;SDS011;10522;52.198;9.890;2023-06-05T02:52:16;3.67;;;2.83;;
20721;SDS011;10522;52.198;9.890;2023-06-05T02:54:41;6.53;;;2.93;;
20721;SDS011;10522;52.198;9.890;2023-06-05T02:57:07;6.10;;;3.03;;
20721;SDS011;10522;52.198;9.890;2023-06-05T02:59:33;6.77;;;3.27;;
20721;SDS011;10522;52.198;9.890;2023-06-05T03:02:07;5.47;;;3.50;;
20721;SDS011;10522;52.198;9.890;2023-06-05T03:04:33;6.10;;;2.73;;
20721;SDS011;10522;52.198;9.890;2023-06-05T03:06:59;5.40;;;3.13;;
20721;SDS011;10522;52.198;9.890;2023-06-05T03:09:29;4.47;;;3.13;;
20721;SDS011;10522;52.198;9.890;2023-06-05T03:11:56;6.90;;;3.13;;
20721;SDS011;10522;52.198;9.890;2023-06-05T03:14:22;9.00;;;3.33;;
20721;SDS011;10522;52.198;9.890;2023-06-05T03:16:48;7.27;;;3.50;;
20721;SDS011;10522;52.198;9.890;2023-06-05T03:19:14;5.80;;;3.47;;
20721;SDS011;10522;52.198;9.890;2023-06-05T03:21:39;6.43;;;2.77;;
20721;SDS011;10522;52.198;9.890;2023-06-05T03:24:13;6.23;;;3.27;;
20721;SDS011;10522;52.198;9.890;2023-06-05T03:26:42;5.40;;;3.37;;
20721;SDS011;10522;52.198;9.890;2023-06-05T03:29:09;7.73;;;3.40;;
20721;SDS011;10522;52.198;9.890;2023-06-05T03:31:35;7.03;;;3.53;;
20721;SDS011;10522;52.198;9.890;2023-06-05T03:34:01;5.23;;;3.13;;
20721;SDS011;10522;52.198;9.890;2023-06-05T03:36:28;6.23;;;3.57;;
20721;SDS011;10522;52.198;9.890;2023-06-05T03:38:55;5.07;;;3.17;;
20721;SDS011;10522;52.198;9.890;2023-06-05T03:41:21;6.13;;;3.43;;
20721;SDS011;10522;52.198;9.890;2023-06-05T03:43:47;6.80;;;3.63;;
20721;SDS011;10522;52.198;9.890;2023-06-05T03:46:14;9.50;;;3.60;;
20721;SDS011;10522;52.198;9.890;2023-06-05T03:48:44;7.47;;;3.37;;
20721;SDS011;10522;52.198;9.890;2023-06-05T03:51:13;5.93;;;3.50;;
20721;SDS011;10522;52.198;9.890;2023-06-05T03:53:43;6.17;;;3.50;;
20721;SDS011;10522;52.198;9.890;2023-06-05T03:56:09;8.63;;;4.70;;
20721;SDS011;10522;52.198;9.890;2023-06-05T03:58:36;8.40;;;3.80;;
20721;SDS011;10522;52.198;9.890;2023-06-05T04:01:03;6.30;;;3.40;;
20721;SDS011;10522;52.198;9.890;2023-06-05T04:03:29;7.70;;;3.47;;
20721;SDS011;10522;52.198;9.890;2023-06-05T04:05:55;5.37;;;3.60;;
20721;SDS011;10522;52.198;9.890;2023-06-05T04:08:20;4.57;;;3.20;;
20721;SDS011;10522;52.198;9.890;2023-06-05T04:10:46;4.60;;;3.33;;
20721;SDS011;10522;52.198;9.890;2023-06-05T04:13:11;5.43;;;3.60;;
20721;SDS011;10522;52.198;9.890;2023-06-05T04:15:37;10.27;;;3.73;;
20721;SDS011;10522;52.198;9.890;2023-06-05T04:18:03;4.77;;;3.33;;
20721;SDS011;10522;52.198;9.890;2023-06-05T04:20:29;7.20;;;4.00;;
20721;SDS011;10522;52.198;9.890;2023-06-05T04:22:54;6.27;;;3.70;;
20721;SDS011;10522;52.198;9.890;2023-06-05T04:25:20;7.13;;;4.07;;
20721;SDS011;10522;52.198;9.890;2023-06-05T04:27:46;6.23;;;3.83;;
20721;SDS011;10522;52.198;9.890;2023-06-05T04:30:14;6.77;;;3.60;;
20721;SDS011;10522;52.198;9.890;2023-06-05T04:32:40;6.40;;;3.93;;
20721;SDS011;10522;52.198;9.890;2023-06-05T04:35:06;8.60;;;4.40;;
20721;SDS011;10522;52.198;9.890;2023-06-05T04:37:33;6.50;;;3.60;;
20721;SDS011;10522;52.198;9.890;2023-06-05T04:40:03;6.60;;;4.50;;
20721;SDS011;10522;52.198;9.890;2023-06-05T04:42:34;6.80;;;3.60;;
20721;SDS011;10522;52.198;9.890;2023-06-05T04:45:02;6.60;;;3.70;;
20721;SDS011;10522;52.198;9.890;2023-06-05T04:47:29;5.27;;;3.97;;
20721;SDS011;10522;52.198;9.890;2023-06-05T04:49:59;5.87;;;3.87;;
20721;SDS011;10522;52.198;9.890;2023-06-05T04:52:29;6.37;;;4.10;;
20721;SDS011;10522;52.198;9.890;2023-06-05T04:54:55;6.37;;;4.30;;
20721;SDS011;10522;52.198;9.890;2023-06-05T04:57:22;7.13;;;4.33;;
20721;SDS011;10522;52.198;9.890;2023-06-05T04:59:51;6.20;;;4.23;;
20721;SDS011;10522;52.198;9.890;2023-06-05T05:02:17;8.57;;;4.67;;
20721;SDS011;10522;52.198;9.890;2023-06-05T05:04:42;9.43;;;4.47;;
20721;SDS011;10522;52.198;9.890;2023-06-05T05:07:08;7.03;;;4.13;;
20721;SDS011;10522;52.198;9.890;2023-06-05T05:09:39;8.90;;;4.70;;
20721;SDS011;10522;52.198;9.890;2023-06-05T05:12:05;6.00;;;5.10;;
20721;SDS011;10522;52.198;9.890;2023-06-05T05:14:32;7.53;;;4.00;;
20721;SDS011;10522;52.198;9.890;2023-06-05T05:16:58;7.63;;;5.00;;
20721;SDS011;10522;52.198;9.890;2023-06-05T05:19:23;7.57;;;4.87;;
20721;SDS011;10522;52.198;9.890;2023-06-05T05:21:49;9.30;;;4.67;;
20721;SDS011;10522;52.198;9.890;2023-06-05T05:24:14;8.50;;;4.87;;
20721;SDS011;10522;52.198;9.890;2023-06-05T05:26:40;6.43;;;4.73;;
20721;SDS011;10522;52.198;9.890;2023-06-05T05:29:06;7.30;;;4.60;;
20721;SDS011;10522;52.198;9.890;2023-06-05T05:31:32;7.83;;;4.97;;
20721;SDS011;10522;52.198;9.890;2023-06-05T05:33:57;7.97;;;5.30;;
20721;SDS011;10522;52.198;9.890;2023-06-05T05:36:23;9.47;;;5.63;;
20721;SDS011;10522;52.198;9.890;2023-06-05T05:38:50;8.10;;;4.77;;
20721;SDS011;10522;52.198;9.890;2023-06-05T05:41:16;8.23;;;4.73;;
20721;SDS011;10522;52.198;9.890;2023-06-05T05:43:41;6.50;;;4.77;;
20721;SDS011;10522;52.198;9.890;2023-06-05T05:46:07;7.57;;;4.97;;
20721;SDS011;10522;52.198;9.890;2023-06-05T05:48:35;9.17;;;5.50;;
20721;SDS011;10522;52.198;9.890;2023-06-05T05:51:01;8.87;;;5.67;;
20721;SDS011;10522;52.198;9.890;2023-06-05T05:53:26;10.93;;;5.23;;
20721;SDS011;10522;52.198;9.890;2023-06-05T05:55:52;7.80;;;5.53;;
20721;SDS011;10522;52.198;9.890;2023-06-05T05:58:18;11.50;;;5.23;;
20721;SDS011;10522;52.198;9.890;2023-06-05T06:00:44;6.80;;;5.43;;
20721;SDS011;10522;52.198;9.890;2023-06-05T06:03:10;10.47;;;5.27;;
20721;SDS011;10522;52.198;9.890;2023-06-05T06:05:36;7.77;;;4.97;;
20721;SDS011;10522;52.198;9.890;2023-06-05T06:08:02;7.17;;;4.97;;
20721;SDS011;10522;52.198;9.890;2023-06-05T06:10:28;9.97;;;5.17;;
20721;SDS011;10522;52.198;9.890;2023-06-05T06:12:55;7.83;;;4.93;;
20721;SDS011;10522;52.198;9.890;2023-06-05T06:15:21;9.47;;;5.43;;
20721;SDS011;10522;52.198;9.890;2023-06-05T06:17:47;8.67;;;5.00;;
20721;SDS011;10522;52.198;9.890;2023-06-05T06:20:12;9.43;;;5.43;;
20721;SDS011;10522;52.198;9.890;2023-06-05T06:22:38;8.43;;;5.10;;
20721;SDS011;10522;52.198;9.890;2023-06-05T06:25:05;8.37;;;5.50;;
20721;SDS011;10522;52.198;9.890;2023-06-05T06:27:31;9.43;;;5.33;;
20721;SDS011;10522;52.198;9.890;2023-06-05T06:29:57;9.33;;;5.10;;
20721;SDS011;10522;52.198;9.890;2023-06-05T06:32:23;8.60;;;5.13;;
20721;SDS011;10522;52.198;9.890;2023-06-05T06:34:51;9.63;;;5.37;;
20721;SDS011;10522;52.198;9.890;2023-06-05T06:37:19;9.80;;;4.90;;
20721;SDS011;10522;52.198;9.890;2023-06-05T06:39:45;8.97;;;5.60;;
20721;SDS011;10522;52.198;9.890;2023-06-05T06:42:11;11.63;;;5.67;;
20721;SDS011;10522;52.198;9.890;2023-06-05T06:44:37;8.67;;;5.50;;
20721;SDS011;10522;52.198;9.890;2023-06-05T06:47:04;7.47;;;5.00;;
20721;SDS011;10522;52.198;9.890;2023-06-05T06:49:29;8.50;;;5.13;;
20721;SDS011;10522;52.198;9.890;2023-06-05T06:51:55;8.73;;;4.53;;
20721;SDS011;10522;52.198;9.890;2023-06-05T06:54:21;9.10;;;5.33;;
20721;SDS011;10522;52.198;9.890;2023-06-05T06:56:47;11.43;;;5.73;;
20721;SDS011;10522;52.198;9.890;2023-06-05T06:59:14;10.50;;;6.00;;
20721;SDS011;10522;52.198;9.890;2023-06-05T07:01:42;8.40;;;5.70;;
20721;SDS011;10522;52.198;9.890;2023-06-05T07:04:12;8.80;;;5.43;;
20721;SDS011;10522;52.198;9.890;2023-06-05T07:06:44;12.17;;;5.60;;
20721;SDS011;10522;52.198;9.890;2023-06-05T07:09:13;7.87;;;5.30;;
20721;SDS011;10522;52.198;9.890;2023-06-05T07:11:38;13.57;;;5.00;;
20721;SDS011;10522;52.198;9.890;2023-06-05T07:14:04;10.80;;;5.87;;
20721;SDS011;10522;52.198;9.890;2023-06-05T07:16:30;10.17;;;5.03;;
20721;SDS011;10522;52.198;9.890;2023-06-05T07:18:56;12.97;;;6.13;;
20721;SDS011;10522;52.198;9.890;2023-06-05T07:21:22;10.53;;;4.90;;
20721;SDS011;10522;52.198;9.890;2023-06-05T07:23:48;7.93;;;5.57;;
20721;SDS011;10522;52.198;9.890;2023-06-05T07:26:16;9.83;;;5.90;;
20721;SDS011;10522;52.198;9.890;2023-06-05T07:28:45;11.07;;;5.77;;
20721;SDS011;10522;52.198;9.890;2023-06-05T07:31:12;9.83;;;5.30;;
20721;SDS011;10522;52.198;9.890;2023-06-05T07:33:38;8.63;;;4.83;;
20721;SDS011;10522;52.198;9.890;2023-06-05T07:36:03;9.37;;;5.23;;
20721;SDS011;10522;52.198;9.890;2023-06-05T07:38:29;8.03;;;4.50;;
20721;SDS011;10522;52.198;9.890;2023-06-05T07:40:55;7.50;;;4.70;;
20721;SDS011;10522;52.198;9.890;2023-06-05T07:43:26;11.63;;;4.97;;
20721;SDS011;10522;52.198;9.890;2023-06-05T07:45:53;6.07;;;4.20;;
20721;SDS011;10522;52.198;9.890;2023-06-05T07:48:19;8.20;;;4.90;;
20721;SDS011;10522;52.198;9.890;2023-06-05T07:50:45;11.73;;;4.87;;
20721;SDS011;10522;52.198;9.890;2023-06-05T07:53:11;12.63;;;5.00;;
20721;SDS011;10522;52.198;9.890;2023-06-05T07:55:36;8.43;;;4.13;;
20721;SDS011;10522;52.198;9.890;2023-06-05T07:58:02;8.80;;;4.13;;
20721;SDS011;10522;52.198;9.890;2023-06-05T08:00:27;12.77;;;4.23;;
20721;SDS011;10522;52.198;9.890;2023-06-05T08:02:53;6.30;;;3.67;;
20721;SDS011;10522;52.198;9.890;2023-06-05T08:05:19;11.30;;;4.53;;
20721;SDS011;10522;52.198;9.890;2023-06-05T08:07:45;9.73;;;4.63;;
20721;SDS011;10522;52.198;9.890;2023-06-05T08:10:12;11.10;;;4.73;;
20721;SDS011;10522;52.198;9.890;2023-06-05T08:12:37;5.53;;;4.30;;
20721;SDS011;10522;52.198;9.890;2023-06-05T08:15:04;7.60;;;3.93;;
20721;SDS011;10522;52.198;9.890;2023-06-05T08:17:31;9.17;;;3.93;;
20721;SDS011;10522;52.198;9.890;2023-06-05T08:19:56;6.53;;;4.03;;
20721;SDS011;10522;52.198;9.890;2023-06-05T08:22:22;7.03;;;3.93;;
20721;SDS011;10522;52.198;9.890;2023-06-05T08:24:47;13.03;;;4.47;;
20721;SDS011;10522;52.198;9.890;2023-06-05T08:27:15;7.60;;;4.30;;
20721;SDS011;10522;52.198;9.890;2023-06-05T08:29:42;7.23;;;4.30;;
20721;SDS011;10522;52.198;9.890;2023-06-05T08:32:07;7.50;;;4.00;;
20721;SDS011;10522;52.198;9.890;2023-06-05T08:34:34;9.43;;;3.90;;
20721;SDS011;10522;52.198;9.890;2023-06-05T08:37:00;5.60;;;4.00;;
20721;SDS011;10522;52.198;9.890;2023-06-05T08:39:26;8.00;;;4.17;;
20721;SDS011;10522;52.198;9.890;2023-06-05T08:41:56;7.47;;;3.73;;
20721;SDS011;10522;52.198;9.890;2023-06-05T08:44:26;5.60;;;3.37;;
20721;SDS011;10522;52.198;9.890;2023-06-05T08:46:53;6.23;;;3.53;;
20721;SDS011;10522;52.198;9.890;2023-06-05T08:49:25;6.90;;;3.73;;
20721;SDS011;10522;52.198;9.890;2023-06-05T08:52:00;11.80;;;3.73;;
20721;SDS011;10522;52.198;9.890;2023-06-05T08:54:28;6.20;;;3.83;;
20721;SDS011;10522;52.198;9.890;2023-06-05T08:56:58;11.67;;;3.33;;
20721;SDS011;10522;52.198;9.890;2023-06-05T08:59:25;5.87;;;3.10;;
20721;SDS011;10522;52.198;9.890;2023-06-05T09:01:51;7.17;;;2.87;;
20721;SDS011;10522;52.198;9.890;2023-06-05T09:04:17;8.70;;;3.37;;
20721;SDS011;10522;52.198;9.890;2023-06-05T09:06:46;4.33;;;2.47;;
20721;SDS011;10522;52.198;9.890;2023-06-05T09:09:17;3.93;;;3.03;;
20721;SDS011;10522;52.198;9.890;2023-06-05T09:11:43;5.03;;;3.13;;
20721;SDS011;10522;52.198;9.890;2023-06-05T09:14:08;7.97;;;2.70;;
20721;SDS011;10522;52.198;9.890;2023-06-05T09:19:02;4.37;;;2.80;;
20721;SDS011;10522;52.198;9.890;2023-06-05T09:21:29;5.67;;;2.70;;
20721;SDS011;10522;52.198;9.890;2023-06-05T09:24:10;5.30;;;2.80;;
20721;SDS011;10522;52.198;9.890;2023-06-05T09:26:49;5.60;;;2.63;;
20721;SDS011;10522;52.198;9.890;2023-06-05T09:29:21;5.93;;;2.73;;
20721;SDS011;10522;52.198;9.890;2023-06-05T09:31:55;6.13;;;2.80;;
20721;SDS011;10522;52.198;9.890;2023-06-05T09:34:38;5.37;;;2.93;;
20721;SDS011;10522;52.198;9.890;2023-06-05T09:37:09;5.50;;;2.43;;
20721;SDS011;10522;52.198;9.890;2023-06-05T09:39:41;7.53;;;2.37;;
20721;SDS011;10522;52.198;9.890;2023-06-05T09:42:11;5.23;;;2.77;;
20721;SDS011;10522;52.198;9.890;2023-06-05T09:44:37;4.87;;;2.40;;
20721;SDS011;10522;52.198;9.890;2023-06-05T09:47:04;7.27;;;2.57;;
20721;SDS011;10522;52.198;9.890;2023-06-05T09:49:32;8.67;;;2.53;;
20721;SDS011;10522;52.198;9.890;2023-06-05T09:52:13;5.93;;;2.60;;
20721;SDS011;10522;52.198;9.890;2023-06-05T09:54:43;5.40;;;2.80;;
20721;SDS011;10522;52.198;9.890;2023-06-05T09:57:11;3.90;;;2.10;;
20721;SDS011;10522;52.198;9.890;2023-06-05T09:59:45;4.10;;;2.43;;
20721;SDS011;10522;52.198;9.890;2023-06-05T10:02:16;4.33;;;2.00;;
20721;SDS011;10522;52.198;9.890;2023-06-05T10:04:58;3.37;;;2.20;;
20721;SDS011;10522;52.198;9.890;2023-06-05T10:07:27;4.40;;;2.83;;
20721;SDS011;10522;52.198;9.890;2023-06-05T10:09:54;6.27;;;2.53;;
20721;SDS011;10522;52.198;9.890;2023-06-05T10:12:22;4.13;;;3.10;;
20721;SDS011;10522;52.198;9.890;2023-06-05T10:14:52;4.90;;;2.83;;
20721;SDS011;10522;52.198;9.890;2023-06-05T10:17:19;4.67;;;2.13;;
20721;SDS011;10522;52.198;9.890;2023-06-05T10:19:46;2.40;;;2.07;;
20721;SDS011;10522;52.198;9.890;2023-06-05T10:22:12;3.37;;;2.17;;
20721;SDS011;10522;52.198;9.890;2023-06-05T10:24:45;5.23;;;2.50;;
20721;SDS011;10522;52.198;9.890;2023-06-05T10:30:44;5.60;;;2.40;;
20721;SDS011;10522;52.198;9.890;2023-06-05T10:33:43;5.37;;;2.20;;
20721;SDS011;10522;52.198;9.890;2023-06-05T10:36:38;6.47;;;2.40;;
20721;SDS011;10522;52.198;9.890;2023-06-05T10:39:22;3.07;;;2.00;;
20721;SDS011;10522;52.198;9.890;2023-06-05T10:41:50;2.90;;;2.03;;
20721;SDS011;10522;52.198;9.890;2023-06-05T10:44:16;3.50;;;2.10;;
20721;SDS011;10522;52.198;9.890;2023-06-05T10:46:42;7.20;;;2.40;;
20721;SDS011;10522;52.198;9.890;2023-06-05T10:49:14;4.40;;;2.47;;
20721;SDS011;10522;52.198;9.890;2023-06-05T10:51:45;4.30;;;2.17;;
20721;SDS011;10522;52.198;9.890;2023-06-05T10:54:13;3.57;;;2.10;;
20721;SDS011;10522;52.198;9.890;2023-06-05T10:57:00;3.33;;;2.03;;
20721;SDS011;10522;52.198;9.890;2023-06-05T10:59:35;5.17;;;2.33;;
20721;SDS011;10522;52.198;9.890;2023-06-05T11:07:17;3.33;;;2.17;;
20721;SDS011;10522;52.198;9.890;2023-06-05T11:15:04;3.10;;;1.83;;
20721;SDS011;10522;52.198;9.890;2023-06-05T11:17:34;5.30;;;2.27;;
20721;SDS011;10522;52.198;9.890;2023-06-05T11:20:01;5.70;;;2.10;;
20721;SDS011;10522;52.198;9.890;2023-06-05T11:22:32;3.97;;;2.17;;
20721;SDS011;10522;52.198;9.890;2023-06-05T11:27:43;4.80;;;2.30;;
20721;SDS011;10522;52.198;9.890;2023-06-05T11:30:13;7.43;;;3.17;;
20721;SDS011;10522;52.198;9.890;2023-06-05T11:32:40;10.30;;;2.40;;
20721;SDS011;10522;52.198;9.890;2023-06-05T11:35:06;2.80;;;2.23;;
20721;SDS011;10522;52.198;9.890;2023-06-05T11:37:33;3.50;;;2.23;;
20721;SDS011;10522;52.198;9.890;2023-06-05T11:39:59;5.50;;;2.73;;
20721;SDS011;10522;52.198;9.890;2023-06-05T11:42:35;2.60;;;2.33;;
20721;SDS011;10522;52.198;9.890;2023-06-05T11:45:01;4.23;;;2.40;;
20721;SDS011;10522;52.198;9.890;2023-06-05T11:47:27;3.33;;;2.60;;
20721;SDS011;10522;52.198;9.890;2023-06-05T11:50:06;4.37;;;2.90;;
20721;SDS011;10522;52.198;9.890;2023-06-05T11:52:40;3.83;;;2.83;;
20721;SDS011;10522;52.198;9.890;2023-06-05T11:55:19;5.37;;;3.03;;
20721;SDS011;10522;52.198;9.890;2023-06-05T11:57:46;4.73;;;2.37;;
20721;SDS011;10522;52.198;9.890;2023-06-05T12:00:13;7.03;;;2.80;;
20721;SDS011;10522;52.198;9.890;2023-06-05T12:02:41;5.57;;;2.80;;
20721;SDS011;10522;52.198;9.890;2023-06-05T12:05:08;5.57;;;2.77;;
20721;SDS011;10522;52.198;9.890;2023-06-05T12:07:34;5.00;;;2.70;;
20721;SDS011;10522;52.198;9.890;2023-06-05T12:10:04;3.50;;;2.50;;
20721;SDS011;10522;52.198;9.890;2023-06-05T12:12:32;4.17;;;3.40;;
20721;SDS011;10522;52.198;9.890;2023-06-05T12:15:17;4.90;;;2.60;;
20721;SDS011;10522;52.198;9.890;2023-06-05T12:17:50;5.33;;;2.30;;
20721;SDS011;10522;52.198;9.890;2023-06-05T12:20:17;3.30;;;2.40;;
20721;SDS011;10522;52.198;9.890;2023-06-05T12:22:43;3.03;;;2.73;;
20721;SDS011;10522;52.198;9.890;2023-06-05T12:25:19;6.13;;;2.57;;
20721;SDS011;10522;52.198;9.890;2023-06-05T12:27:46;4.43;;;2.50;;
20721;SDS011;10522;52.198;9.890;2023-06-05T12:30:12;6.93;;;2.83;;
20721;SDS011;10522;52.198;9.890;2023-06-05T12:32:42;3.33;;;2.70;;
20721;SDS011;10522;52.198;9.890;2023-06-05T12:35:18;6.93;;;3.37;;
20721;SDS011;10522;52.198;9.890;2023-06-05T12:37:44;5.90;;;3.30;;
20721;SDS011;10522;52.198;9.890;2023-06-05T12:40:12;5.10;;;3.23;;
20721;SDS011;10522;52.198;9.890;2023-06-05T12:42:39;8.13;;;2.80;;
20721;SDS011;10522;52.198;9.890;2023-06-05T12:45:06;4.93;;;2.73;;
20721;SDS011;10522;52.198;9.890;2023-06-05T12:47:38;3.27;;;2.27;;
20721;SDS011;10522;52.198;9.890;2023-06-05T12:50:05;5.13;;;3.03;;
20721;SDS011;10522;52.198;9.890;2023-06-05T12:52:32;6.30;;;2.70;;
20721;SDS011;10522;52.198;9.890;2023-06-05T12:54:58;6.80;;;2.80;;
20721;SDS011;10522;52.198;9.890;2023-06-05T12:57:26;5.13;;;2.57;;
20721;SDS011;10522;52.198;9.890;2023-06-05T12:59:52;4.77;;;2.67;;
20721;SDS011;10522;52.198;9.890;2023-06-05T13:02:19;2.87;;;2.50;;
20721;SDS011;10522;52.198;9.890;2023-06-05T13:04:45;4.40;;;2.93;;
20721;SDS011;10522;52.198;9.890;2023-06-05T13:07:11;3.17;;;2.67;;
20721;SDS011;10522;52.198;9.890;2023-06-05T13:09:38;3.37;;;2.53;;
20721;SDS011;10522;52.198;9.890;2023-06-05T13:12:04;4.37;;;2.67;;
20721;SDS011;10522;52.198;9.890;2023-06-05T13:14:30;5.10;;;2.50;;
20721;SDS011;10522;52.198;9.890;2023-06-05T13:16:56;3.97;;;2.30;;
20721;SDS011;10522;52.198;9.890;2023-06-05T13:19:22;3.80;;;2.00;;
20721;SDS011;10522;52.198;9.890;2023-06-05T13:21:48;3.03;;;2.20;;
20721;SDS011;10522;52.198;9.890;2023-06-05T13:24:14;2.50;;;2.17;;
20721;SDS011;10522;52.198;9.890;2023-06-05T13:26:40;6.40;;;2.93;;
20721;SDS011;10522;52.198;9.890;2023-06-05T13:29:08;2.60;;;2.37;;
20721;SDS011;10522;52.198;9.890;2023-06-05T13:31:34;3.93;;;2.80;;
20721;SDS011;10522;52.198;9.890;2023-06-05T13:34:00;2.53;;;2.03;;
20721;SDS011;10522;52.198;9.890;2023-06-05T13:36:26;7.47;;;2.80;;
20721;SDS011;10522;52.198;9.890;2023-06-05T13:38:52;5.33;;;2.30;;
20721;SDS011;10522;52.198;9.890;2023-06-05T13:41:18;4.73;;;2.30;;
20721;SDS011;10522;52.198;9.890;2023-06-05T13:43:44;4.83;;;2.83;;
20721;SDS011;10522;52.198;9.890;2023-06-05T13:46:10;5.03;;;2.53;;
20721;SDS011;10522;52.198;9.890;2023-06-05T13:48:35;4.77;;;2.60;;
20721;SDS011;10522;52.198;9.890;2023-06-05T13:51:02;5.10;;;2.53;;
20721;SDS011;10522;52.198;9.890;2023-06-05T13:53:28;12.60;;;2.87;;
20721;SDS011;10522;52.198;9.890;2023-06-05T13:55:59;5.13;;;2.40;;
20721;SDS011;10522;52.198;9.890;2023-06-05T13:58:28;6.03;;;2.33;;
20721;SDS011;10522;52.198;9.890;2023-06-05T14:00:53;6.30;;;2.30;;
20721;SDS011;10522;52.198;9.890;2023-06-05T14:03:20;3.47;;;2.47;;
20721;SDS011;10522;52.198;9.890;2023-06-05T14:05:45;3.33;;;2.27;;
20721;SDS011;10522;52.198;9.890;2023-06-05T14:08:11;3.93;;;2.50;;
20721;SDS011;10522;52.198;9.890;2023-06-05T14:10:36;6.73;;;2.20;;
20721;SDS011;10522;52.198;9.890;2023-06-05T14:13:02;6.93;;;2.40;;
20721;SDS011;10522;52.198;9.890;2023-06-05T14:15:30;4.87;;;2.30;;
20721;SDS011;10522;52.198;9.890;2023-06-05T14:17:57;7.00;;;2.57;;
20721;SDS011;10522;52.198;9.890;2023-06-05T14:20:25;3.63;;;2.40;;
20721;SDS011;10522;52.198;9.890;2023-06-05T14:22:50;5.70;;;2.53;;
20721;SDS011;10522;52.198;9.890;2023-06-05T14:25:16;3.00;;;2.53;;
20721;SDS011;10522;52.198;9.890;2023-06-05T14:27:42;4.20;;;2.50;;
20721;SDS011;10522;52.198;9.890;2023-06-05T14:30:08;5.03;;;2.70;;
20721;SDS011;10522;52.198;9.890;2023-06-05T14:32:35;3.17;;;2.20;;
20721;SDS011;10522;52.198;9.890;2023-06-05T14:35:04;4.40;;;2.50;;
20721;SDS011;10522;52.198;9.890;2023-06-05T14:37:30;4.80;;;2.40;;
20721;SDS011;10522;52.198;9.890;2023-06-05T14:39:56;4.90;;;2.10;;
20721;SDS011;10522;52.198;9.890;2023-06-05T14:42:22;4.57;;;2.40;;
20721;SDS011;10522;52.198;9.890;2023-06-05T14:44:48;5.40;;;2.43;;
20721;SDS011;10522;52.198;9.890;2023-06-05T14:47:14;5.00;;;2.50;;
20721;SDS011;10522;52.198;9.890;2023-06-05T14:49:40;9.60;;;2.60;;
20721;SDS011;10522;52.198;9.890;2023-06-05T14:52:05;3.70;;;2.80;;
20721;SDS011;10522;52.198;9.890;2023-06-05T14:54:31;9.80;;;2.70;;
20721;SDS011;10522;52.198;9.890;2023-06-05T14:56:57;7.17;;;2.83;;
20721;SDS011;10522;52.198;9.890;2023-06-05T14:59:22;3.93;;;2.70;;
20721;SDS011;10522;52.198;9.890;2023-06-05T15:01:48;5.93;;;3.20;;
20721;SDS011;10522;52.198;9.890;2023-06-05T15:04:13;4.57;;;2.50;;
20721;SDS011;10522;52.198;9.890;2023-06-05T15:06:40;7.47;;;2.70;;
20721;SDS011;10522;52.198;9.890;2023-06-05T15:09:06;6.80;;;2.83;;
20721;SDS011;10522;52.198;9.890;2023-06-05T15:11:32;9.27;;;3.40;;